sensor_id;sensor_type;location;lat;lon;timestamp;pressure;altitude;pressure_sealevel;temperature;humidity
55664;BME280;41540;57.880;12.164;2022-12-18T00:00:41;100861.84;;;0.15;100.00
55664;BME280;41540;57.880;12.164;2022-12-18T00:10:42;100813.53;;;-0.23;100.00
55664;BME280;41540;57.880;12.164;2022-12-18T00:20:42;100885.44;;;-0.01;100.00
55664;BME280;41540;57.880;12.164;2022-12-18T00:30:43;100742.59;;;-1.09;100.00
55664;BME280;41540;57.880;12.164;2022-12-18T00:40:43;100806.09;;;-0.72;100.00
55664;BME280;41540;57.880;12.164;2022-12-18T00:50:44;100707.03;;;-1.34;100.00
55664;BME280;41540;57.880;12.164;2022-12-18T01:00:44;100785.03;;;-0.83;100.00
55664;BME280;41540;57.880;12.164;2022-12-18T01:10:44;100812.47;;;-0.65;100.00
55664;BME280;41540;57.880;12.164;2022-12-18T01:20:45;100781.50;;;-0.85;100.00
55664;BME280;41540;57.880;12.164;2022-12-18T01:30:45;100820.50;;;-0.59;100.00
55664;BME280;41540;57.880;12.164;2022-12-18T01:40:46;100713.44;;;-1.14;100.00
55664;BME280;41540;57.880;12.164;2022-12-18T01:50:46;100701.53;;;-1.27;100.00
55664;BME280;41540;57.880;12.164;2022-12-18T02:00:46;100806.91;;;-0.60;100.00
55664;BME280;41540;57.880;12.164;2022-12-18T02:11:01;100551.63;;;-1.65;100.00
55664;BME280;41540;57.880;12.164;2022-12-18T02:31:26;100745.53;;;-0.77;100.00
55664;BME280;41540;57.880;12.164;2022-12-18T02:41:28;100712.00;;;-0.97;100.00
55664;BME280;41540;57.880;12.164;2022-12-18T02:51:48;100743.66;;;-0.67;100.00
55664;BME280;41540;57.880;12.164;2022-12-18T03:12:14;100711.06;;;-0.59;100.00
55664;BME280;41540;57.880;12.164;2022-12-18T03:22:27;100543.75;;;-1.16;100.00
55664;BME280;41540;57.880;12.164;2022-12-18T03:32:43;100745.63;;;0.17;100.00
55664;BME280;41540;57.880;12.164;2022-12-18T03:42:53;100627.06;;;-0.46;100.00
55664;BME280;41540;57.880;12.164;2022-12-18T03:53:02;100735.28;;;0.29;100.00
55664;BME280;41540;57.880;12.164;2022-12-18T04:03:07;100671.88;;;-0.08;100.00
55664;BME280;41540;57.880;12.164;2022-12-18T04:13:09;100634.91;;;-0.29;100.00
55664;BME280;41540;57.880;12.164;2022-12-18T04:23:09;100652.63;;;-0.31;100.00
55664;BME280;41540;57.880;12.164;2022-12-18T04:33:11;100539.38;;;-0.92;100.00
55664;BME280;41540;57.880;12.164;2022-12-18T04:43:11;100706.00;;;-0.06;100.00
55664;BME280;41540;57.880;12.164;2022-12-18T04:53:12;100680.81;;;-0.14;100.00
55664;BME280;41540;57.880;12.164;2022-12-18T05:03:12;100683.28;;;-0.29;100.00
55664;BME280;41540;57.880;12.164;2022-12-18T05:13:13;100702.63;;;-0.05;100.00
55664;BME280;41540;57.880;12.164;2022-12-18T05:23:13;100640.50;;;-0.48;100.00
55664;BME280;41540;57.880;12.164;2022-12-18T05:33:13;100773.16;;;0.23;100.00
55664;BME280;41540;57.880;12.164;2022-12-18T05:43:14;100789.41;;;0.25;100.00
55664;BME280;41540;57.880;12.164;2022-12-18T05:53:16;100740.44;;;0.16;100.00
55664;BME280;41540;57.880;12.164;2022-12-18T06:03:17;100801.53;;;0.43;100.00
55664;BME280;41540;57.880;12.164;2022-12-18T06:13:18;100805.06;;;0.45;100.00
55664;BME280;41540;57.880;12.164;2022-12-18T06:23:18;100700.50;;;-0.25;100.00
55664;BME280;41540;57.880;12.164;2022-12-18T06:33:18;100723.50;;;-0.10;100.00
55664;BME280;41540;57.880;12.164;2022-12-18T06:43:19;100672.72;;;-0.49;100.00
55664;BME280;41540;57.880;12.164;2022-12-18T06:53:19;100785.59;;;0.18;100.00
55664;BME280;41540;57.880;12.164;2022-12-18T07:03:20;100760.44;;;0.10;100.00
55664;BME280;41540;57.880;12.164;2022-12-18T07:13:20;100773.94;;;0.09;100.00
55664;BME280;41540;57.880;12.164;2022-12-18T07:23:20;100745.47;;;-0.26;100.00
55664;BME280;41540;57.880;12.164;2022-12-18T07:33:21;100806.06;;;0.20;100.00
55664;BME280;41540;57.880;12.164;2022-12-18T07:43:21;100851.34;;;0.37;100.00
55664;BME280;41540;57.880;12.164;2022-12-18T07:53:22;100865.63;;;0.49;100.00
55664;BME280;41540;57.880;12.164;2022-12-18T08:03:22;100858.91;;;0.36;100.00
55664;BME280;41540;57.880;12.164;2022-12-18T08:13:23;100897.78;;;0.60;100.00
55664;BME280;41540;57.880;12.164;2022-12-18T08:23:24;100775.16;;;-0.13;100.00
55664;BME280;41540;57.880;12.164;2022-12-18T08:33:24;100915.84;;;0.76;100.00
55664;BME280;41540;57.880;12.164;2022-12-18T08:43:25;100879.28;;;0.49;100.00
55664;BME280;41540;57.880;12.164;2022-12-18T08:53:44;100962.81;;;0.80;100.00
55664;BME280;41540;57.880;12.164;2022-12-18T09:03:49;100931.72;;;0.72;100.00
55664;BME280;41540;57.880;12.164;2022-12-18T09:13:49;101016.56;;;1.10;100.00
55664;BME280;41540;57.880;12.164;2022-12-18T09:23:51;100990.56;;;1.02;100.00
55664;BME280;41540;57.880;12.164;2022-12-18T09:33:51;100911.84;;;0.53;100.00
55664;BME280;41540;57.880;12.164;2022-12-18T09:43:59;100902.81;;;0.45;100.00
55664;BME280;41540;57.880;12.164;2022-12-18T09:54:04;100941.44;;;0.78;100.00
55664;BME280;41540;57.880;12.164;2022-12-18T10:04:07;101028.59;;;1.39;100.00
55664;BME280;41540;57.880;12.164;2022-12-18T10:14:18;101031.00;;;1.79;100.00
55664;BME280;41540;57.880;12.164;2022-12-18T10:34:44;101040.84;;;1.45;100.00
55664;BME280;41540;57.880;12.164;2022-12-18T10:44:45;101064.41;;;1.54;100.00
55664;BME280;41540;57.880;12.164;2022-12-18T10:54:53;101118.22;;;1.70;100.00
55664;BME280;41540;57.880;12.164;2022-12-18T11:04:54;101041.16;;;1.36;100.00
55664;BME280;41540;57.880;12.164;2022-12-18T11:14:58;100998.09;;;1.14;100.00
55664;BME280;41540;57.880;12.164;2022-12-18T11:35:23;101034.50;;;1.25;100.00
55664;BME280;41540;57.880;12.164;2022-12-18T11:45:34;101082.81;;;1.35;100.00
55664;BME280;41540;57.880;12.164;2022-12-18T12:06:18;101161.53;;;1.69;100.00
55664;BME280;41540;57.880;12.164;2022-12-18T12:26:35;101098.31;;;1.11;100.00
55664;BME280;41540;57.880;12.164;2022-12-18T12:47:32;101193.56;;;1.64;100.00
55664;BME280;41540;57.880;12.164;2022-12-18T12:57:51;101067.09;;;0.89;100.00
55664;BME280;41540;57.880;12.164;2022-12-18T13:08:03;100899.72;;;-0.16;100.00
55664;BME280;41540;57.880;12.164;2022-12-18T13:18:21;101204.00;;;1.53;100.00
55664;BME280;41540;57.880;12.164;2022-12-18T13:38:39;101215.56;;;1.48;100.00
55664;BME280;41540;57.880;12.164;2022-12-18T13:59:23;101210.84;;;1.28;100.00
55664;BME280;41540;57.880;12.164;2022-12-18T14:09:26;101161.50;;;0.89;100.00
55664;BME280;41540;57.880;12.164;2022-12-18T14:19:28;101174.22;;;0.75;100.00
55664;BME280;41540;57.880;12.164;2022-12-18T14:29:30;101169.47;;;0.55;100.00
55664;BME280;41540;57.880;12.164;2022-12-18T14:39:31;101136.00;;;0.25;100.00
55664;BME280;41540;57.880;12.164;2022-12-18T14:49:33;101140.44;;;0.28;100.00
55664;BME280;41540;57.880;12.164;2022-12-18T14:59:34;101073.59;;;0.07;100.00
55664;BME280;41540;57.880;12.164;2022-12-18T15:09:35;100993.28;;;-0.38;100.00
55664;BME280;41540;57.880;12.164;2022-12-18T15:19:38;101120.91;;;0.53;100.00
55664;BME280;41540;57.880;12.164;2022-12-18T15:29:39;101151.47;;;0.78;100.00
55664;BME280;41540;57.880;12.164;2022-12-18T15:39:39;101145.88;;;0.84;100.00
55664;BME280;41540;57.880;12.164;2022-12-18T15:49:40;101153.63;;;0.72;100.00
55664;BME280;41540;57.880;12.164;2022-12-18T15:59:40;101285.56;;;1.25;100.00
55664;BME280;41540;57.880;12.164;2022-12-18T16:09:41;101237.84;;;0.86;100.00
55664;BME280;41540;57.880;12.164;2022-12-18T16:19:42;101292.31;;;1.25;100.00
55664;BME280;41540;57.880;12.164;2022-12-18T16:29:42;101073.84;;;-0.02;100.00
55664;BME280;41540;57.880;12.164;2022-12-18T16:39:44;101189.59;;;0.64;100.00
55664;BME280;41540;57.880;12.164;2022-12-18T16:49:45;101307.44;;;1.22;100.00
55664;BME280;41540;57.880;12.164;2022-12-18T16:59:47;101229.50;;;0.63;100.00
55664;BME280;41540;57.880;12.164;2022-12-18T17:09:48;101307.19;;;1.05;100.00
55664;BME280;41540;57.880;12.164;2022-12-18T17:19:51;101200.91;;;0.42;100.00
55664;BME280;41540;57.880;12.164;2022-12-18T17:29:53;101229.28;;;0.60;100.00
55664;BME280;41540;57.880;12.164;2022-12-18T17:39:53;101166.72;;;0.27;100.00
55664;BME280;41540;57.880;12.164;2022-12-18T17:49:53;101228.88;;;0.54;100.00
55664;BME280;41540;57.880;12.164;2022-12-18T17:59:54;101236.84;;;0.58;100.00
55664;BME280;41540;57.880;12.164;2022-12-18T18:09:55;101209.31;;;0.41;100.00
55664;BME280;41540;57.880;12.164;2022-12-18T18:19:55;101191.09;;;0.23;100.00
55664;BME280;41540;57.880;12.164;2022-12-18T18:29:55;101187.41;;;0.31;100.00
55664;BME280;41540;57.880;12.164;2022-12-18T18:39:56;101270.06;;;0.72;100.00
55664;BME280;41540;57.880;12.164;2022-12-18T18:49:56;101300.88;;;0.75;100.00
55664;BME280;41540;57.880;12.164;2022-12-18T18:59:56;101312.56;;;0.96;100.00
55664;BME280;41540;57.880;12.164;2022-12-18T19:10:00;101313.06;;;0.79;100.00
55664;BME280;41540;57.880;12.164;2022-12-18T19:20:01;101352.47;;;0.96;100.00
55664;BME280;41540;57.880;12.164;2022-12-18T19:30:01;101273.09;;;0.54;100.00
55664;BME280;41540;57.880;12.164;2022-12-18T19:40:02;101217.03;;;0.17;100.00
55664;BME280;41540;57.880;12.164;2022-12-18T19:50:03;101321.50;;;0.78;100.00
55664;BME280;41540;57.880;12.164;2022-12-18T20:00:04;101302.91;;;0.67;100.00
55664;BME280;41540;57.880;12.164;2022-12-18T20:10:07;101228.59;;;0.37;100.00
55664;BME280;41540;57.880;12.164;2022-12-18T20:20:10;101279.59;;;0.37;100.00
55664;BME280;41540;57.880;12.164;2022-12-18T20:30:10;101313.75;;;0.28;100.00
55664;BME280;41540;57.880;12.164;2022-12-18T20:40:11;101193.00;;;-0.58;100.00
55664;BME280;41540;57.880;12.164;2022-12-18T20:50:11;101351.75;;;0.01;100.00
55664;BME280;41540;57.880;12.164;2022-12-18T21:00:12;101342.34;;;-0.35;100.00
55664;BME280;41540;57.880;12.164;2022-12-18T21:10:13;101366.44;;;-0.42;100.00
55664;BME280;41540;57.880;12.164;2022-12-18T21:20:14;101340.16;;;-0.65;100.00
55664;BME280;41540;57.880;12.164;2022-12-18T21:30:15;101319.84;;;-0.87;100.00
55664;BME280;41540;57.880;12.164;2022-12-18T21:40:15;101340.84;;;-0.89;100.00
55664;BME280;41540;57.880;12.164;2022-12-18T21:50:16;101328.44;;;-0.96;100.00
55664;BME280;41540;57.880;12.164;2022-12-18T22:00:16;101311.97;;;-1.24;100.00
55664;BME280;41540;57.880;12.164;2022-12-18T22:10:17;101210.47;;;-1.99;100.00
55664;BME280;41540;57.880;12.164;2022-12-18T22:20:18;101416.53;;;-0.87;100.00
55664;BME280;41540;57.880;12.164;2022-12-18T22:30:18;101395.28;;;-1.09;100.00
55664;BME280;41540;57.880;12.164;2022-12-18T22:40:22;101295.28;;;-1.64;100.00
55664;BME280;41540;57.880;12.164;2022-12-18T22:50:23;101150.28;;;-2.54;100.00
55664;BME280;41540;57.880;12.164;2022-12-18T23:00:24;101317.03;;;-1.68;100.00
55664;BME280;41540;57.880;12.164;2022-12-18T23:10:24;101278.53;;;-1.94;100.00
55664;BME280;41540;57.880;12.164;2022-12-18T23:20:26;101282.59;;;-1.97;100.00
55664;BME280;41540;57.880;12.164;2022-12-18T23:30:26;101332.09;;;-1.59;100.00
55664;BME280;41540;57.880;12.164;2022-12-18T23:40:28;101202.38;;;-2.37;100.00
55664;BME280;41540;57.880;12.164;2022-12-18T23:50:28;101196.28;;;-2.39;100.00
